createdAt,value
2022-07-25T00:04:39.723Z,23
2022-07-25T00:10:33.996Z,23
2022-07-25T00:36:09.406Z,22.8
2022-07-25T00:42:20.509Z,22.5
2022-07-25T00:48:27.638Z,22.4
2022-07-25T00:54:26.005Z,22.5
2022-07-25T01:06:26.883Z,22.3
2022-07-25T01:12:27.602Z,22.3
2022-07-25T01:24:26.034Z,22.4
2022-07-25T01:36:56.762Z,22.2
2022-07-25T01:55:01.077Z,22.3
2022-07-25T02:00:56.618Z,22.2
2022-07-25T02:14:08.361Z,21.8
2022-07-25T02:26:33.650Z,21.9
2022-07-25T02:32:45.842Z,22
2022-07-25T02:38:44.007Z,22
2022-07-25T02:50:44.206Z,22.1
2022-07-25T02:56:52.930Z,22.3
2022-07-25T03:02:50.729Z,22.3
2022-07-25T03:15:02.151Z,22.1
2022-07-25T03:40:20.673Z,22.1
2022-07-25T03:46:34.101Z,22
2022-07-25T03:52:41.258Z,21.9
2022-07-25T04:35:43.777Z,21.8
2022-07-25T04:41:36.381Z,21.9
2022-07-25T04:47:28.153Z,22.4
2022-07-25T04:53:19.529Z,22.9
2022-07-25T04:59:11.350Z,23.5
2022-07-25T05:05:02.405Z,23.9
2022-07-25T05:11:06.130Z,27.2
2022-07-25T05:16:59.691Z,26.3
2022-07-25T05:22:51.044Z,26
2022-07-25T05:28:43.143Z,26.2
2022-07-25T05:34:34.272Z,26.7
2022-07-25T05:40:25.885Z,27.2
2022-07-25T05:46:17.490Z,31.2
2022-07-25T05:52:13.359Z,34.2
2022-07-25T05:58:07.796Z,34.5
2022-07-25T06:04:01.561Z,33.8
2022-07-25T06:09:55.628Z,32.3
2022-07-25T06:15:47.250Z,30.5
2022-07-25T06:21:43.061Z,31.4
2022-07-25T06:27:35.040Z,30.4
2022-07-25T06:33:25.665Z,29.4
2022-07-25T06:39:16.885Z,29.1
2022-07-25T06:45:05.975Z,28.7
2022-07-25T06:50:57.066Z,28.9
2022-07-25T06:56:50.014Z,28.6
2022-07-25T07:02:41.359Z,28.6
2022-07-25T07:08:32.828Z,28.5
2022-07-25T07:14:24.166Z,28.4
2022-07-25T07:20:15.716Z,28.3
2022-07-25T07:26:06.957Z,28.2
2022-07-25T07:31:58.925Z,28.4
2022-07-25T07:37:50.346Z,28.2
2022-07-25T07:43:41.347Z,28.3
2022-07-25T07:49:36.786Z,28.2
2022-07-25T07:55:34.898Z,28.3
2022-07-25T08:01:26.370Z,28.4
2022-07-25T08:07:19.105Z,28.5
2022-07-25T08:13:10.054Z,28.7
2022-07-25T08:19:02.534Z,28.6
2022-07-25T08:24:55.349Z,28.9
2022-07-25T08:30:47.980Z,28.9
2022-07-25T08:36:38.603Z,29
2022-07-25T08:42:30.779Z,29.2
2022-07-25T08:48:22.699Z,29.2
2022-07-25T08:54:16.689Z,29.4
2022-07-25T09:00:10.463Z,29.5
2022-07-25T09:06:04.368Z,29.6
2022-07-25T09:11:55.309Z,29.9
2022-07-25T09:17:49.699Z,30
2022-07-25T09:23:41.758Z,30.1
2022-07-25T09:29:32.539Z,30
2022-07-25T09:35:23.884Z,30.2
2022-07-25T09:41:16.182Z,30.4
2022-07-25T09:47:07.340Z,30.5
2022-07-25T09:52:58.198Z,30.8
2022-07-25T09:58:49.881Z,30.8
2022-07-25T10:04:42.233Z,30.5
2022-07-25T10:10:35.775Z,30.5
2022-07-25T10:16:28.050Z,30.4
2022-07-25T10:22:34.622Z,30.1
2022-07-25T10:28:45.513Z,30.2
2022-07-25T10:34:35.954Z,30.1
2022-07-25T10:40:27.455Z,30
2022-07-25T10:46:20.709Z,29.8
2022-07-25T10:52:13.954Z,29.5
2022-07-25T10:58:16.913Z,29
2022-07-25T11:04:06.955Z,28.8
2022-07-25T11:09:57.800Z,28.5
2022-07-25T11:15:50.409Z,28.7
2022-07-25T11:21:41.135Z,28.8
2022-07-25T11:27:33.791Z,28.8
2022-07-25T11:33:24.606Z,28.5
2022-07-25T11:39:18.430Z,29.1
2022-07-25T11:45:08.169Z,29.6
2022-07-25T11:50:56.909Z,29.1
2022-07-25T11:56:48.727Z,28.9
2022-07-25T12:02:39.101Z,29.1
2022-07-25T12:08:31.539Z,28.9
2022-07-25T12:14:23.869Z,28.2
2022-07-25T12:20:21.490Z,28.1
2022-07-25T12:26:13.258Z,28.2
2022-07-25T12:32:06.179Z,28.2
2022-07-25T12:37:56.138Z,28.1
2022-07-25T12:43:48.151Z,28.2
2022-07-25T12:49:40.965Z,28.4
2022-07-25T12:55:32.239Z,28.4
2022-07-25T13:01:22.269Z,28
2022-07-25T13:07:13.468Z,27.8
2022-07-25T13:13:04.691Z,27.7
2022-07-25T13:18:57.018Z,28
2022-07-25T13:24:48.451Z,27.9
2022-07-25T13:30:39.955Z,28
2022-07-25T13:36:32.619Z,28.2
2022-07-25T13:42:23.807Z,28.2
2022-07-25T13:48:30.945Z,28.6
2022-07-25T13:54:21.930Z,28.6
2022-07-25T14:00:13.995Z,29.3
2022-07-25T14:06:05.811Z,29.4
2022-07-25T14:11:57.078Z,29
2022-07-25T14:17:49.948Z,29
2022-07-25T14:23:41.062Z,28.6
2022-07-25T14:29:31.668Z,28.6
2022-07-25T14:35:23.101Z,28.8
2022-07-25T14:41:19.802Z,28.7
2022-07-25T14:47:12.660Z,28.7
2022-07-25T14:53:03.844Z,28.5
2022-07-25T14:58:55.802Z,28.7
2022-07-25T15:04:46.892Z,28.2
2022-07-25T15:10:38.197Z,28
2022-07-25T15:16:29.354Z,27.8
2022-07-25T15:22:20.645Z,28
2022-07-25T15:28:09.604Z,28.1
2022-07-25T15:34:00.703Z,28.1
2022-07-25T15:39:51.645Z,27.7
2022-07-25T15:45:41.871Z,27.3
2022-07-25T15:51:32.008Z,26.6
2022-07-25T15:58:33.471Z,26.4
2022-07-25T16:04:23.314Z,26.1
2022-07-25T16:10:14.614Z,26
2022-07-25T16:16:05.739Z,26
2022-07-25T16:21:56.843Z,26
2022-07-25T16:27:47.834Z,26.3
2022-07-25T16:33:41.140Z,26
2022-07-25T16:39:32.686Z,25.8
2022-07-25T16:45:23.094Z,25.6
2022-07-25T16:51:13.597Z,26
2022-07-25T16:57:04.871Z,26.2
2022-07-25T17:02:55.479Z,25.8
2022-07-25T17:08:46.542Z,25.8
2022-07-25T17:14:37.653Z,26.2
2022-07-25T17:20:28.749Z,26.3
2022-07-25T17:26:19.360Z,26.1
2022-07-25T17:32:09.084Z,26.1
2022-07-25T17:38:01.651Z,25.9
2022-07-25T17:43:55.217Z,26
2022-07-25T17:49:45.348Z,25.6
2022-07-25T17:55:38.863Z,25.9
2022-07-25T18:01:32.500Z,25.8
2022-07-25T18:07:22.948Z,25.7
2022-07-25T18:13:13.058Z,25.5
2022-07-25T18:19:03.421Z,25.6
2022-07-25T18:24:57.659Z,25.6
2022-07-25T18:30:49.367Z,25.5
2022-07-25T18:36:38.887Z,25.3
2022-07-25T18:42:29.987Z,25.3
2022-07-25T18:48:22.931Z,25.1
2022-07-25T18:54:18.327Z,25.2
2022-07-25T19:00:08.120Z,25.1
2022-07-25T19:06:02.923Z,24.7
2022-07-25T19:11:53.771Z,24.6
2022-07-25T19:17:44.065Z,24.6
2022-07-25T19:23:34.759Z,24.5
2022-07-25T19:29:25.462Z,24.5
2022-07-25T19:35:16.946Z,24.4
2022-07-25T19:41:13.119Z,24.1
2022-07-25T19:47:02.626Z,24.1
2022-07-25T19:52:58.853Z,24.1
2022-07-25T19:58:51.228Z,24
2022-07-25T20:04:41.881Z,23.9
2022-07-25T20:10:32.617Z,23.8
2022-07-25T20:16:22.615Z,23.7
2022-07-25T20:22:13.551Z,23.4
2022-07-25T20:28:04.098Z,23.3
2022-07-25T20:33:55.022Z,23.3
2022-07-25T20:39:45.726Z,23.2
2022-07-25T20:45:39.321Z,23.2
2022-07-25T20:51:32.763Z,23.2
2022-07-25T20:57:22.831Z,22.8
2022-07-25T21:03:14.151Z,23
2022-07-25T21:09:05.152Z,22.8
2022-07-25T21:14:56.462Z,22.9
2022-07-25T21:20:48.323Z,22.7
2022-07-25T21:26:38.774Z,22.7
2022-07-25T21:32:29.779Z,22.5
2022-07-25T21:38:26.627Z,22.5
2022-07-25T21:44:22.847Z,22.2
2022-07-25T21:50:13.932Z,22.5
2022-07-25T21:56:13.334Z,22.2
2022-07-25T22:02:06.058Z,22.1
2022-07-25T22:07:56.795Z,22
2022-07-25T22:13:47.609Z,21.9
2022-07-25T22:19:38.568Z,21.8
2022-07-25T22:25:29.758Z,21.7
2022-07-25T22:31:20.645Z,21.5
2022-07-25T22:37:13.427Z,21.6
2022-07-25T22:43:04.060Z,21.8
2022-07-25T22:48:55.172Z,21.2
2022-07-25T22:54:46.043Z,21.3
2022-07-25T23:00:36.591Z,21.2
2022-07-25T23:06:29.428Z,21.5
2022-07-25T23:12:19.914Z,21.5
2022-07-25T23:24:17.521Z,21.3
2022-07-25T23:30:10.093Z,21.3
2022-07-25T23:36:02.930Z,21.1
2022-07-25T23:41:55.817Z,21.1
2022-07-25T23:47:56.163Z,20.8
2022-07-25T23:53:47.507Z,21
2022-07-25T23:59:40.018Z,20.7
